createdAt,value
2019-04-27T00:00:35.696Z,98284.64
2019-04-27T00:03:03.931Z,98286.85
2019-04-27T00:05:34.851Z,98285.05
2019-04-27T00:07:59.450Z,98286.33
2019-04-27T00:10:28.584Z,98244.59
2019-04-27T00:12:57.285Z,98282.92
2019-04-27T00:15:28.173Z,98283.45
2019-04-27T00:17:49.833Z,98283.79
2019-04-27T00:20:15.775Z,98279.39
2019-04-27T00:22:43.503Z,98273.80
2019-04-27T00:25:09.635Z,98271.33
2019-04-27T00:27:35.731Z,98272.00
2019-04-27T00:30:03.844Z,98261.16
2019-04-27T00:32:30.086Z,98255.58
2019-04-27T00:34:57.190Z,98244.45
2019-04-27T00:37:23.750Z,98244.47
2019-04-27T00:39:50.055Z,98244.66
2019-04-27T00:42:15.990Z,98253.85
2019-04-27T00:44:43.000Z,98250.20
2019-04-27T00:47:09.143Z,98249.90
2019-04-27T00:49:35.180Z,98244.66
2019-04-27T00:52:01.329Z,98243.16
2019-04-27T00:54:27.560Z,98241.08
2019-04-27T00:56:53.580Z,98242.25
2019-04-27T00:59:19.523Z,98238.99
2019-04-27T01:01:45.420Z,98245.22
2019-04-27T01:04:13.624Z,98241.47
2019-04-27T01:06:39.731Z,98228.84
2019-04-27T01:09:05.746Z,98231.66
2019-04-27T01:11:33.463Z,98224.92
2019-04-27T01:13:59.629Z,98228.55
2019-04-27T01:16:25.654Z,98235.94
2019-04-27T01:18:51.597Z,98229.87
2019-04-27T01:21:19.328Z,98229.38
2019-04-27T01:23:45.409Z,98232.67
2019-04-27T01:26:11.484Z,98230.23
2019-04-27T01:28:38.866Z,98235.47
2019-04-27T01:31:04.889Z,98230.55
2019-04-27T01:33:30.818Z,98221.70
2019-04-27T01:35:56.767Z,98227.78
2019-04-27T01:38:22.721Z,98226.14
2019-04-27T01:40:49.791Z,98224.02
2019-04-27T01:43:15.998Z,98221.72
2019-04-27T01:45:41.949Z,98223.33
2019-04-27T01:48:20.893Z,98220.52
2019-04-27T01:50:36.206Z,98220.69
2019-04-27T01:53:02.203Z,98212.98
2019-04-27T01:55:29.812Z,98218.37
2019-04-27T01:57:55.963Z,98211.13
2019-04-27T02:00:31.573Z,98213.25
2019-04-27T02:02:57.479Z,98212.42
2019-04-27T02:05:23.773Z,98204.88
2019-04-27T02:07:49.716Z,98208.98
2019-04-27T02:10:15.836Z,98210.47
2019-04-27T02:12:43.909Z,98206.59
2019-04-27T02:15:11.035Z,98205.95
2019-04-27T02:17:38.572Z,98213.98
2019-04-27T02:20:06.948Z,98203.66
2019-04-27T02:22:32.945Z,98205.30
2019-04-27T02:24:59.172Z,98211.18
2019-04-27T02:27:25.201Z,98216.40
2019-04-27T02:29:51.093Z,98212.00
2019-04-27T02:32:17.157Z,98206.42
2019-04-27T02:34:43.170Z,98216.08
2019-04-27T02:37:10.169Z,98213.95
2019-04-27T02:39:36.332Z,98208.56
2019-04-27T02:42:02.345Z,98213.30
2019-04-27T02:44:30.176Z,98217.70
2019-04-27T02:46:56.346Z,98212.73
2019-04-27T02:49:22.425Z,98217.44
2019-04-27T02:51:49.591Z,98216.27
2019-04-27T02:54:15.849Z,98210.16
2019-04-27T02:56:41.927Z,98214.68
2019-04-27T02:59:11.499Z,98216.06
2019-04-27T03:01:36.563Z,98216.00
2019-04-27T03:04:02.805Z,98221.52
2019-04-27T03:06:29.981Z,98214.98
2019-04-27T03:08:56.387Z,98214.26
2019-04-27T03:11:23.407Z,98219.52
2019-04-27T03:13:51.999Z,98223.54
2019-04-27T03:16:20.308Z,98219.48
2019-04-27T03:18:45.706Z,98232.06
2019-04-27T03:21:13.077Z,98220.00
2019-04-27T03:23:41.212Z,98222.06
2019-04-27T03:26:07.226Z,98212.61
2019-04-27T03:28:33.183Z,98209.00
2019-04-27T03:31:02.473Z,98214.30
2019-04-27T03:33:27.202Z,98211.89
2019-04-27T03:35:53.548Z,98215.01
2019-04-27T03:38:19.861Z,98220.05
2019-04-27T03:40:45.958Z,98214.36
2019-04-27T03:43:12.206Z,98221.16
2019-04-27T03:45:40.015Z,98220.34
2019-04-27T03:48:06.165Z,98219.34
2019-04-27T03:50:33.516Z,98218.04
2019-04-27T03:53:00.570Z,98214.47
2019-04-27T03:55:26.702Z,98212.17
2019-04-27T03:57:52.693Z,98219.42
2019-04-27T04:00:19.957Z,98210.37
2019-04-27T04:02:46.394Z,98210.20
2019-04-27T04:05:12.630Z,98210.86
2019-04-27T04:07:40.224Z,98211.16
2019-04-27T04:10:06.774Z,98215.53
2019-04-27T04:12:32.714Z,98214.70
2019-04-27T04:14:59.872Z,98218.17
2019-04-27T04:17:26.165Z,98220.30
2019-04-27T04:19:57.284Z,98220.00
2019-04-27T04:22:20.178Z,98221.82
2019-04-27T04:24:46.212Z,98218.94
2019-04-27T04:27:12.111Z,98216.87
2019-04-27T04:29:39.454Z,98217.97
2019-04-27T04:32:06.717Z,98214.18
2019-04-27T04:34:32.631Z,98219.52
2019-04-27T04:37:00.496Z,98208.22
2019-04-27T04:39:26.548Z,98206.81
2019-04-27T04:41:52.570Z,98199.29
2019-04-27T04:44:20.294Z,98201.88
2019-04-27T04:46:46.333Z,98202.67
2019-04-27T04:49:13.419Z,98206.47
2019-04-27T04:51:40.197Z,98205.47
2019-04-27T04:54:06.378Z,98206.78
2019-04-27T04:56:32.280Z,98205.03
2019-04-27T04:59:00.008Z,98201.77
2019-04-27T05:01:27.250Z,98200.35
2019-04-27T05:03:53.148Z,98198.62
2019-04-27T05:06:19.102Z,98199.92
2019-04-27T05:08:44.979Z,98196.78
2019-04-27T05:11:10.945Z,98200.95
2019-04-27T05:13:36.921Z,98205.55
2019-04-27T05:16:02.958Z,98208.89
2019-04-27T05:18:29.429Z,98212.70
2019-04-27T05:20:55.503Z,98209.83
2019-04-27T05:23:21.419Z,98210.37
2019-04-27T05:25:49.034Z,98177.35
2019-04-27T05:28:15.155Z,98203.49
2019-04-27T05:30:41.314Z,98196.55
2019-04-27T05:33:08.977Z,98201.87
2019-04-27T05:35:35.140Z,98198.26
2019-04-27T05:38:07.237Z,98198.26
2019-04-27T05:40:31.033Z,98198.08
2019-04-27T05:42:58.227Z,98200.13
2019-04-27T05:45:37.564Z,98201.65
2019-04-27T05:48:03.467Z,98208.02
2019-04-27T05:50:36.178Z,98198.44
2019-04-27T05:52:57.349Z,98193.17
2019-04-27T05:55:23.471Z,98194.05
2019-04-27T05:57:49.377Z,98181.23
2019-04-27T06:00:15.722Z,98184.95
2019-04-27T06:02:41.899Z,98173.77
2019-04-27T06:05:08.846Z,98181.49
2019-04-27T06:07:35.047Z,98179.27
2019-04-27T06:10:01.143Z,98179.92
2019-04-27T06:12:27.065Z,98184.22
2019-04-27T06:14:52.980Z,98184.30
2019-04-27T06:17:19.540Z,98179.33
2019-04-27T06:19:45.526Z,98178.30
2019-04-27T06:22:11.563Z,98174.96
2019-04-27T06:24:39.634Z,98177.70
2019-04-27T06:27:05.760Z,98175.88
2019-04-27T06:29:31.778Z,98167.17
2019-04-27T06:31:59.384Z,98167.22
2019-04-27T06:34:25.666Z,98171.55
2019-04-27T06:36:51.735Z,98166.86
2019-04-27T06:39:20.235Z,98164.23
2019-04-27T06:41:45.698Z,98161.16
2019-04-27T06:44:11.709Z,98154.89
2019-04-27T06:46:38.567Z,98153.95
2019-04-27T06:49:05.495Z,98148.53
2019-04-27T06:51:31.709Z,98153.62
2019-04-27T06:53:59.333Z,98145.01
2019-04-27T06:56:25.506Z,98150.16
2019-04-27T06:58:51.467Z,98150.48
2019-04-27T07:01:18.953Z,98154.84
2019-04-27T07:03:45.150Z,98154.67
2019-04-27T07:06:11.116Z,98148.55
2019-04-27T07:08:37.014Z,98145.91
2019-04-27T07:11:03.012Z,98150.04
2019-04-27T07:13:29.270Z,98153.73
2019-04-27T07:15:55.325Z,98150.00
2019-04-27T07:18:21.457Z,98140.38
2019-04-27T07:20:48.510Z,98146.20
2019-04-27T07:23:15.731Z,98141.37
2019-04-27T07:25:41.669Z,98143.44
2019-04-27T07:28:09.177Z,98142.84
2019-04-27T07:30:35.354Z,98147.23
2019-04-27T07:33:01.373Z,98142.38
2019-04-27T07:35:27.398Z,98152.86
2019-04-27T07:37:53.353Z,98142.28
2019-04-27T07:40:19.428Z,98144.73
2019-04-27T07:42:46.099Z,98150.56
2019-04-27T07:45:12.557Z,98142.58
2019-04-27T07:47:39.329Z,98137.08
2019-04-27T07:50:05.726Z,98135.42
2019-04-27T07:52:31.808Z,98134.25
2019-04-27T07:54:58.760Z,98136.22
2019-04-27T07:57:24.888Z,98130.38
2019-04-27T07:59:50.916Z,98125.53
2019-04-27T08:02:18.953Z,98125.83
2019-04-27T08:04:47.809Z,98116.64
2019-04-27T08:07:13.330Z,98122.45
2019-04-27T08:09:39.800Z,98125.17
2019-04-27T08:12:05.880Z,98111.30
2019-04-27T08:14:31.812Z,98115.04
2019-04-27T08:16:58.681Z,98112.95
2019-04-27T08:19:24.912Z,98114.05
2019-04-27T08:21:51.123Z,97968.00
2019-04-27T08:24:17.179Z,98117.02
2019-04-27T08:26:43.192Z,98134.66
2019-04-27T08:29:09.136Z,98119.06
2019-04-27T08:31:35.068Z,98117.57
2019-04-27T08:34:01.007Z,98120.59
2019-04-27T08:36:28.784Z,98118.67
2019-04-27T08:38:54.792Z,98115.59
2019-04-27T08:41:21.336Z,98113.50
2019-04-27T08:43:48.876Z,98098.22
2019-04-27T08:46:16.189Z,98104.20
2019-04-27T08:48:42.325Z,98093.72
2019-04-27T08:51:09.533Z,98096.49
2019-04-27T08:53:35.842Z,98097.73
2019-04-27T08:56:01.796Z,98098.06
2019-04-27T08:58:28.665Z,98097.50
2019-04-27T09:00:55.086Z,98098.45
2019-04-27T09:03:21.274Z,98099.69
2019-04-27T09:05:48.938Z,98095.13
2019-04-27T09:08:15.203Z,98083.48
2019-04-27T09:10:41.163Z,98091.66
2019-04-27T09:13:08.826Z,98088.17
2019-04-27T09:15:35.083Z,98083.48
2019-04-27T09:18:01.134Z,98083.95
2019-04-27T09:20:28.686Z,98071.18
2019-04-27T09:22:54.833Z,98073.52
2019-04-27T09:25:21.116Z,98072.48
2019-04-27T09:27:47.071Z,98060.70
2019-04-27T09:30:13.377Z,98068.84
2019-04-27T09:32:40.811Z,98065.87
2019-04-27T09:35:07.725Z,98074.77
2019-04-27T09:37:33.798Z,98078.44
2019-04-27T09:39:59.742Z,98067.54
2019-04-27T09:42:26.812Z,98062.20
2019-04-27T09:44:53.022Z,98065.90
2019-04-27T09:47:19.002Z,98063.28
2019-04-27T09:49:46.070Z,98055.36
2019-04-27T09:52:23.567Z,98049.89
2019-04-27T09:54:40.199Z,98050.34
2019-04-27T09:57:06.993Z,98049.98
2019-04-27T09:59:34.148Z,98051.65
2019-04-27T10:02:00.080Z,98047.31
2019-04-27T10:04:26.381Z,98039.31
2019-04-27T10:06:52.419Z,98039.98
2019-04-27T10:09:18.406Z,98033.02
2019-04-27T10:11:44.440Z,98038.17
2019-04-27T10:14:10.388Z,98043.52
2019-04-27T10:16:36.680Z,98033.31
2019-04-27T10:19:03.181Z,98035.34
2019-04-27T10:21:29.349Z,98026.03
2019-04-27T10:23:56.787Z,98031.16
2019-04-27T10:26:22.733Z,98020.54
2019-04-27T10:28:48.679Z,98014.31
2019-04-27T10:31:15.025Z,98024.45
2019-04-27T10:33:40.928Z,98012.75
2019-04-27T10:36:06.869Z,98022.64
2019-04-27T10:38:32.853Z,98012.67
2019-04-27T10:40:58.837Z,98003.83
2019-04-27T10:43:25.813Z,98011.23
2019-04-27T10:45:52.083Z,98001.80
2019-04-27T10:48:18.117Z,98000.58
2019-04-27T10:50:44.111Z,97997.73
2019-04-27T10:53:10.058Z,97967.31
2019-04-27T10:55:36.391Z,97990.06
2019-04-27T10:58:03.053Z,97994.48
2019-04-27T11:00:29.040Z,97986.28
2019-04-27T11:02:56.541Z,97976.31
2019-04-27T11:05:23.031Z,97981.59
2019-04-27T11:07:49.057Z,97979.16
2019-04-27T11:10:16.330Z,97974.54
2019-04-27T11:12:42.509Z,97974.24
2019-04-27T11:15:09.041Z,97975.09
2019-04-27T11:17:37.024Z,97971.89
2019-04-27T11:20:07.585Z,97965.39
2019-04-27T11:22:33.744Z,97967.69
2019-04-27T11:24:59.643Z,97962.23
2019-04-27T11:27:25.543Z,97965.53
2019-04-27T11:29:51.518Z,97965.02
2019-04-27T11:32:17.422Z,97967.09
2019-04-27T11:34:43.384Z,97955.34
2019-04-27T11:37:09.366Z,97957.78
2019-04-27T11:39:35.971Z,97954.52
2019-04-27T11:42:02.315Z,97950.61
2019-04-27T11:44:29.314Z,97960.09
2019-04-27T11:46:55.899Z,97963.98
2019-04-27T11:49:22.152Z,97955.69
2019-04-27T11:51:48.161Z,97957.95
2019-04-27T11:54:14.242Z,97958.31
2019-04-27T11:56:40.260Z,97965.02
2019-04-27T11:59:07.050Z,97963.35
2019-04-27T12:01:33.360Z,97971.64
2019-04-27T12:03:59.352Z,97980.28
2019-04-27T12:06:26.469Z,97981.10
2019-04-27T12:08:52.479Z,97983.97
2019-04-27T12:11:18.438Z,97975.89
2019-04-27T12:13:46.070Z,97986.09
2019-04-27T12:16:12.187Z,97999.60
2019-04-27T12:18:38.205Z,98004.19
2019-04-27T12:21:06.037Z,98011.03
2019-04-27T12:23:35.918Z,98010.32
2019-04-27T12:25:59.821Z,98007.80
2019-04-27T12:28:27.191Z,98012.80
2019-04-27T12:30:53.469Z,98009.22
2019-04-27T12:33:19.360Z,98010.20
2019-04-27T12:35:46.248Z,98019.28
2019-04-27T12:38:13.295Z,98011.56
2019-04-27T12:40:39.241Z,98009.09
2019-04-27T12:43:05.136Z,98012.81
2019-04-27T12:45:32.183Z,98013.31
2019-04-27T12:47:58.205Z,98006.58
2019-04-27T12:50:26.029Z,98009.28
2019-04-27T12:52:52.275Z,98003.53
2019-04-27T12:55:18.271Z,98007.14
2019-04-27T12:57:44.308Z,98003.05
2019-04-27T13:00:10.851Z,98000.46
2019-04-27T13:02:36.749Z,97992.33
2019-04-27T13:05:05.996Z,97992.81
2019-04-27T13:07:31.896Z,97986.85
2019-04-27T13:09:57.855Z,97985.05
2019-04-27T13:12:25.438Z,97977.61
2019-04-27T13:14:52.790Z,97982.20
2019-04-27T13:17:18.724Z,98004.98
2019-04-27T13:19:45.655Z,97978.84
2019-04-27T13:22:11.734Z,97966.95
2019-04-27T13:24:37.732Z,97964.25
2019-04-27T13:27:04.171Z,97974.87
2019-04-27T13:29:30.200Z,97972.51
2019-04-27T13:31:57.750Z,97966.56
2019-04-27T13:34:23.768Z,97955.58
2019-04-27T13:36:49.711Z,97963.05
2019-04-27T13:39:16.049Z,97954.85
2019-04-27T13:41:42.077Z,97956.30
2019-04-27T13:44:08.197Z,97956.95
2019-04-27T13:46:34.219Z,97946.86
2019-04-27T13:49:00.248Z,97947.44
2019-04-27T13:51:26.264Z,97944.20
2019-04-27T13:53:52.202Z,97942.26
2019-04-27T13:56:18.103Z,97950.97
2019-04-27T13:58:44.362Z,97936.05
2019-04-27T14:01:10.562Z,97927.78
2019-04-27T14:03:36.494Z,97928.84
2019-04-27T14:06:02.812Z,97929.56
2019-04-27T14:08:29.119Z,97927.95
2019-04-27T14:10:55.020Z,97932.12
2019-04-27T14:13:20.998Z,97924.09
2019-04-27T14:15:46.942Z,97931.14
2019-04-27T14:18:12.945Z,97928.05
2019-04-27T14:20:39.038Z,97917.12
2019-04-27T14:23:05.076Z,97924.33
2019-04-27T14:25:31.023Z,97931.51
2019-04-27T14:27:58.415Z,97921.41
2019-04-27T14:30:25.456Z,97917.71
2019-04-27T14:32:51.899Z,97927.00
2019-04-27T14:35:18.747Z,97924.34
2019-04-27T14:37:47.457Z,97923.04
2019-04-27T14:40:13.171Z,97922.25
2019-04-27T14:42:39.135Z,97922.25
2019-04-27T14:45:05.625Z,97923.44
2019-04-27T14:47:31.728Z,97918.14
2019-04-27T14:49:58.988Z,97757.88
2019-04-27T14:52:25.282Z,97902.09
2019-04-27T14:54:51.187Z,97904.26
2019-04-27T14:57:18.444Z,97898.66
2019-04-27T14:59:45.075Z,97897.42
2019-04-27T15:02:11.009Z,97891.32
2019-04-27T15:04:39.329Z,97900.39
2019-04-27T15:07:05.061Z,97897.20
2019-04-27T15:09:31.152Z,97898.12
2019-04-27T15:11:57.201Z,97898.48
2019-04-27T15:14:23.957Z,97901.36
2019-04-27T15:16:50.093Z,97902.01
2019-04-27T15:19:17.650Z,97904.48
2019-04-27T15:21:56.355Z,97902.80
2019-04-27T15:24:13.633Z,97906.70
2019-04-27T15:26:39.767Z,97910.98
2019-04-27T15:29:05.771Z,97909.17
2019-04-27T15:31:31.726Z,97910.10
2019-04-27T15:33:58.944Z,97911.13
2019-04-27T15:36:24.986Z,97912.68
2019-04-27T15:38:53.704Z,97905.94
2019-04-27T15:41:19.584Z,97902.72
2019-04-27T15:43:45.575Z,97902.72
2019-04-27T15:46:11.554Z,97906.47
2019-04-27T15:48:38.461Z,97904.86
2019-04-27T15:51:09.758Z,97906.38
2019-04-27T15:53:32.536Z,97902.91
2019-04-27T15:56:01.779Z,97898.45
2019-04-27T15:58:28.340Z,97901.50
2019-04-27T16:00:56.352Z,97898.54
2019-04-27T16:03:26.774Z,97892.44
2019-04-27T16:05:50.338Z,97912.98
2019-04-27T16:08:18.646Z,97912.98
2019-04-27T16:10:44.421Z,97931.05
2019-04-27T16:13:14.988Z,97951.48
2019-04-27T16:15:38.457Z,97965.86
2019-04-27T16:18:05.808Z,97980.83
2019-04-27T16:20:33.937Z,97988.05
2019-04-27T16:23:03.180Z,97984.38
2019-04-27T16:25:31.348Z,97991.22
2019-04-27T16:27:55.478Z,98004.33
2019-04-27T16:30:21.480Z,98003.69
2019-04-27T16:32:48.044Z,98006.54
2019-04-27T16:35:19.448Z,98008.80
2019-04-27T16:37:42.090Z,98000.41
2019-04-27T16:40:10.733Z,98010.16
2019-04-27T16:42:36.434Z,98011.48
2019-04-27T16:45:04.188Z,98008.28
2019-04-27T16:47:30.131Z,98010.69
2019-04-27T16:49:56.029Z,98012.32
2019-04-27T16:52:22.024Z,98014.44
2019-04-27T16:54:49.939Z,98007.27
2019-04-27T16:57:15.773Z,98000.30
2019-04-27T16:59:46.290Z,97998.92
2019-04-27T17:02:11.751Z,97990.20
2019-04-27T17:04:38.992Z,97991.95
2019-04-27T17:07:04.935Z,97988.75
2019-04-27T17:09:30.870Z,97984.17
2019-04-27T17:11:59.265Z,97979.17
2019-04-27T17:14:29.210Z,97985.47
2019-04-27T17:16:53.246Z,97990.78
2019-04-27T17:19:19.141Z,98000.07
2019-04-27T17:21:45.268Z,98012.44
2019-04-27T17:24:11.150Z,98012.27
2019-04-27T17:26:41.886Z,98014.81
2019-04-27T17:29:10.986Z,98015.31
2019-04-27T17:31:32.857Z,98015.06
2019-04-27T17:34:00.560Z,98012.48
2019-04-27T17:36:26.556Z,98027.77
2019-04-27T17:38:52.628Z,98037.88
2019-04-27T17:41:19.062Z,98009.52
2019-04-27T17:43:45.099Z,98036.18
2019-04-27T17:46:11.647Z,98043.01
2019-04-27T17:48:38.960Z,98049.98
2019-04-27T17:51:05.265Z,98044.38
2019-04-27T17:53:33.078Z,98048.86
2019-04-27T17:56:02.616Z,98044.18
2019-04-27T17:58:28.669Z,98052.14
2019-04-27T18:00:54.775Z,98051.59
2019-04-27T18:03:21.178Z,98054.55
2019-04-27T18:05:49.335Z,98056.75
2019-04-27T18:11:00.591Z,98068.34
2019-04-27T18:13:25.543Z,98081.53
2019-04-27T18:15:54.131Z,98091.41
2019-04-27T18:18:22.816Z,98094.12
2019-04-27T18:20:47.833Z,98091.17
2019-04-27T18:23:15.189Z,98084.16
2019-04-27T18:25:43.618Z,98098.79
2019-04-27T18:28:15.022Z,98085.36
2019-04-27T18:30:38.743Z,98083.27
2019-04-27T18:33:05.429Z,98085.27
2019-04-27T18:35:31.394Z,98083.34
2019-04-27T18:38:00.189Z,98080.62
2019-04-27T18:40:32.234Z,98080.95
2019-04-27T18:42:53.302Z,98077.05
2019-04-27T18:45:19.211Z,98060.99
2019-04-27T18:47:45.305Z,98052.65
2019-04-27T18:50:14.724Z,98053.82
2019-04-27T18:52:43.150Z,98060.85
2019-04-27T18:55:10.956Z,98068.23
2019-04-27T18:57:35.737Z,98075.30
2019-04-27T19:00:03.640Z,98072.05
2019-04-27T19:02:29.788Z,98076.94
2019-04-27T19:04:55.752Z,98082.53
2019-04-27T19:07:23.136Z,98083.36
2019-04-27T19:09:49.628Z,98092.36
2019-04-27T19:12:15.649Z,98097.25
2019-04-27T19:14:41.668Z,98113.05
2019-04-27T19:17:07.709Z,98111.21
2019-04-27T19:19:33.707Z,98125.84
2019-04-27T19:21:59.639Z,98132.05
2019-04-27T19:24:25.546Z,98146.50
2019-04-27T19:26:51.512Z,98152.07
2019-04-27T19:29:18.902Z,98156.81
2019-04-27T19:31:44.966Z,98157.59
2019-04-27T19:34:10.917Z,98160.20
2019-04-27T19:36:38.666Z,98129.86
2019-04-27T19:39:06.010Z,98169.02
2019-04-27T19:41:34.104Z,98167.84
2019-04-27T19:44:00.024Z,98168.23
2019-04-27T19:46:25.919Z,98173.63
2019-04-27T19:48:51.947Z,98175.62
2019-04-27T19:51:17.990Z,98173.00
2019-04-27T19:53:45.219Z,98168.58
2019-04-27T19:56:11.112Z,98167.31
2019-04-27T19:58:38.162Z,98171.89
2019-04-27T20:01:11.984Z,98168.96
2019-04-27T20:03:32.662Z,98168.30
2019-04-27T20:05:59.496Z,98172.23
2019-04-27T20:08:25.756Z,98176.00
2019-04-27T20:10:53.034Z,98179.45
2019-04-27T20:13:19.442Z,98183.38
2019-04-27T20:15:45.460Z,98187.34
2019-04-27T20:18:11.687Z,98160.48
2019-04-27T20:20:38.052Z,98190.27
2019-04-27T20:23:04.348Z,98181.27
2019-04-27T20:25:31.336Z,98180.60
2019-04-27T20:27:57.445Z,98188.65
2019-04-27T20:30:23.338Z,98187.00
2019-04-27T20:32:51.049Z,98189.95
2019-04-27T20:35:17.077Z,98198.30
2019-04-27T20:37:43.020Z,98196.35
2019-04-27T20:40:11.178Z,98184.38
2019-04-27T20:42:37.162Z,98190.92
2019-04-27T20:45:04.750Z,98188.33
2019-04-27T20:47:30.980Z,98186.19
2019-04-27T20:49:56.946Z,98186.49
2019-04-27T20:52:22.844Z,98196.67
2019-04-27T20:54:48.908Z,98199.30
2019-04-27T20:57:14.784Z,98194.55
2019-04-27T20:59:40.864Z,98191.93
2019-04-27T21:02:06.764Z,98188.33
2019-04-27T21:04:32.883Z,98194.37
2019-04-27T21:06:58.805Z,98198.62
2019-04-27T21:09:24.827Z,98199.43
2019-04-27T21:11:50.841Z,98200.09
2019-04-27T21:14:17.068Z,98203.88
2019-04-27T21:16:43.306Z,98203.69
2019-04-27T21:19:10.938Z,98203.06
2019-04-27T21:21:38.555Z,98197.49
2019-04-27T21:24:04.446Z,98203.38
2019-04-27T21:26:32.146Z,98198.47
2019-04-27T21:28:58.221Z,98202.23
2019-04-27T21:31:24.157Z,98201.57
2019-04-27T21:33:50.084Z,98208.94
2019-04-27T21:36:16.067Z,98210.59
2019-04-27T21:38:42.930Z,98208.14
2019-04-27T21:41:09.094Z,98211.73
2019-04-27T21:43:35.077Z,98220.23
2019-04-27T21:46:01.147Z,98219.92
2019-04-27T21:48:27.119Z,98220.91
2019-04-27T21:50:53.048Z,98224.52
2019-04-27T21:53:19.083Z,98234.83
2019-04-27T21:55:45.083Z,98235.48
2019-04-27T21:58:11.583Z,98236.11
2019-04-27T22:00:38.260Z,98234.66
2019-04-27T22:03:06.093Z,98231.06
2019-04-27T22:05:32.143Z,98239.08
2019-04-27T22:07:58.134Z,98233.83
2019-04-27T22:10:24.088Z,98236.30
2019-04-27T22:12:51.820Z,98245.30
2019-04-27T22:15:17.917Z,98242.05
2019-04-27T22:17:44.101Z,98238.75
2019-04-27T22:20:11.710Z,98243.16
2019-04-27T22:22:37.886Z,98248.91
2019-04-27T22:25:04.787Z,98251.53
2019-04-27T22:27:30.938Z,98251.54
2019-04-27T22:29:57.149Z,98253.82
2019-04-27T22:32:23.081Z,98257.27
2019-04-27T22:34:48.977Z,98268.41
2019-04-27T22:37:14.934Z,98263.31
2019-04-27T22:39:41.020Z,98271.03
2019-04-27T22:42:06.959Z,98268.41
2019-04-27T22:44:32.966Z,98268.23
2019-04-27T22:46:58.899Z,98269.88
2019-04-27T22:49:25.058Z,98269.70
2019-04-27T22:51:52.184Z,98275.46
2019-04-27T22:54:51.611Z,98276.27
2019-04-27T22:57:17.545Z,98271.34
2019-04-27T22:59:43.457Z,98281.99
2019-04-27T23:02:11.449Z,98279.70
2019-04-27T23:04:37.606Z,98275.94
2019-04-27T23:07:05.470Z,98282.34
2019-04-27T23:09:31.381Z,98278.89
2019-04-27T23:11:57.318Z,98277.58
2019-04-27T23:14:23.275Z,98279.20
2019-04-27T23:16:49.298Z,98282.34
2019-04-27T23:19:15.420Z,98279.86
2019-04-27T23:21:42.434Z,98286.73
2019-04-27T23:24:08.378Z,98286.89
2019-04-27T23:26:34.280Z,98279.70
2019-04-27T23:29:12.350Z,98285.93
2019-04-27T23:31:29.232Z,98283.98
2019-04-27T23:33:55.334Z,98277.42
2019-04-27T23:36:21.743Z,98286.25
2019-04-27T23:38:48.015Z,98292.80
2019-04-27T23:41:14.064Z,98294.77
2019-04-27T23:43:40.014Z,98283.96
2019-04-27T23:46:05.959Z,98288.69
2019-04-27T23:48:32.110Z,98290.98
2019-04-27T23:50:58.279Z,98289.53
2019-04-27T23:53:24.351Z,98288.73
2019-04-27T23:55:50.247Z,98290.84
2019-04-27T23:58:17.356Z,98292.33
